createdAt,value
2022-08-26T00:04:18.052Z,8.60
2022-08-26T00:09:21.224Z,8.95
2022-08-26T00:14:29.972Z,8.30
2022-08-26T00:19:34.085Z,9.05
2022-08-26T00:24:36.768Z,7.93
2022-08-26T00:29:41.158Z,7.57
2022-08-26T00:34:44.218Z,7.82
2022-08-26T00:39:47.131Z,7.87
2022-08-26T00:44:49.897Z,8.82
2022-08-26T00:49:54.940Z,7.40
2022-08-26T00:55:05.496Z,8.30
2022-08-26T01:00:13.687Z,8.52
2022-08-26T01:05:18.239Z,8.17
2022-08-26T01:10:26.878Z,8.18
2022-08-26T01:15:41.917Z,8.07
2022-08-26T01:20:57.773Z,8.30
2022-08-26T01:26:09.350Z,8.10
2022-08-26T01:31:26.469Z,8.27
2022-08-26T01:36:30.249Z,7.38
2022-08-26T01:41:33.634Z,6.80
2022-08-26T01:46:36.995Z,5.90
2022-08-26T01:51:41.312Z,6.03
2022-08-26T01:56:44.492Z,7.83
2022-08-26T02:01:48.508Z,5.68
2022-08-26T02:06:51.740Z,5.95
2022-08-26T02:11:56.503Z,5.50
2022-08-26T02:16:59.698Z,6.47
2022-08-26T02:22:08.669Z,6.07
2022-08-26T02:27:11.437Z,6.78
2022-08-26T02:32:18.477Z,6.38
2022-08-26T02:37:23.002Z,7.07
2022-08-26T02:42:25.893Z,6.43
2022-08-26T02:47:29.272Z,6.43
2022-08-26T02:52:35.387Z,6.47
2022-08-26T02:57:38.124Z,6.13
2022-08-26T03:02:41.239Z,5.30
2022-08-26T03:07:44.318Z,6.30
2022-08-26T03:12:48.159Z,5.63
2022-08-26T03:17:51.145Z,5.30
2022-08-26T03:22:54.088Z,5.68
2022-08-26T03:27:59.419Z,8.43
2022-08-26T03:33:03.014Z,6.25
2022-08-26T03:38:08.511Z,6.67
2022-08-26T03:43:12.399Z,6.78
2022-08-26T03:48:15.424Z,6.35
2022-08-26T03:53:20.554Z,6.77
2022-08-26T03:58:25.577Z,6.78
2022-08-26T04:03:48.137Z,6.60
2022-08-26T04:08:50.982Z,6.18
2022-08-26T04:13:53.769Z,6.40
2022-08-26T04:18:57.918Z,7.03
2022-08-26T04:24:03.554Z,6.85
2022-08-26T04:29:10.843Z,7.57
2022-08-26T04:34:14.396Z,6.47
2022-08-26T04:39:18.748Z,6.22
2022-08-26T04:44:25.170Z,7.00
2022-08-26T04:49:28.023Z,7.32
2022-08-26T04:54:38.170Z,6.93
2022-08-26T04:59:44.941Z,6.95
2022-08-26T05:04:48.971Z,8.00
2022-08-26T05:09:54.910Z,6.70
2022-08-26T05:14:57.878Z,6.78
2022-08-26T05:20:00.758Z,5.83
2022-08-26T05:25:03.775Z,5.65
2022-08-26T05:30:07.447Z,5.55
2022-08-26T05:35:10.814Z,5.07
2022-08-26T05:40:13.986Z,5.55
2022-08-26T05:45:17.112Z,5.83
2022-08-26T05:50:25.780Z,4.95
2022-08-26T05:55:28.646Z,5.10
2022-08-26T06:00:31.761Z,5.00
2022-08-26T06:05:42.001Z,5.22
2022-08-26T06:10:49.703Z,5.37
2022-08-26T06:15:55.934Z,4.63
2022-08-26T06:21:00.042Z,4.68
2022-08-26T06:26:04.630Z,5.30
2022-08-26T06:31:07.581Z,5.03
2022-08-26T06:36:20.879Z,4.97
2022-08-26T06:41:27.799Z,5.43
2022-08-26T06:46:31.584Z,5.93
2022-08-26T06:51:37.558Z,5.80
2022-08-26T06:56:44.142Z,5.82
2022-08-26T07:01:47.492Z,5.50
2022-08-26T07:06:54.020Z,5.90
2022-08-26T07:11:57.173Z,5.35
2022-08-26T07:17:01.359Z,6.20
2022-08-26T07:22:06.661Z,5.20
2022-08-26T07:27:14.713Z,5.77
2022-08-26T07:32:20.693Z,5.10
2022-08-26T07:37:26.020Z,5.38
2022-08-26T07:42:29.345Z,5.67
2022-08-26T07:47:32.384Z,5.90
2022-08-26T07:52:37.920Z,5.90
2022-08-26T07:57:41.491Z,5.53
2022-08-26T08:02:45.452Z,5.47
2022-08-26T08:07:53.489Z,5.70
2022-08-26T08:12:58.919Z,4.95
2022-08-26T08:18:04.034Z,5.67
2022-08-26T08:23:07.221Z,5.20
2022-08-26T08:28:10.281Z,5.75
2022-08-26T08:33:14.254Z,5.27
2022-08-26T08:38:17.839Z,6.00
2022-08-26T08:43:27.034Z,6.23
2022-08-26T08:48:35.489Z,5.68
2022-08-26T08:53:43.181Z,5.95
2022-08-26T08:58:52.122Z,5.17
2022-08-26T09:04:22.146Z,5.85
2022-08-26T09:10:00.852Z,6.10
2022-08-26T09:15:30.543Z,5.45
2022-08-26T09:20:48.038Z,5.60
2022-08-26T09:26:01.597Z,5.87
2022-08-26T09:31:15.542Z,6.10
2022-08-26T09:36:24.774Z,6.03
2022-08-26T09:41:34.038Z,5.93
2022-08-26T09:51:46.073Z,5.50
2022-08-26T09:57:10.418Z,5.35
2022-08-26T10:02:32.582Z,5.50
2022-08-26T10:07:40.793Z,5.35
2022-08-26T10:12:51.891Z,5.93
2022-08-26T10:18:00.911Z,5.27
2022-08-26T10:23:23.816Z,5.57
2022-08-26T10:28:48.370Z,5.00
2022-08-26T10:33:55.477Z,5.10
2022-08-26T10:39:05.390Z,4.65
2022-08-26T10:44:10.806Z,4.77
2022-08-26T10:49:16.222Z,5.10
2022-08-26T10:54:41.943Z,4.77
2022-08-26T11:00:24.278Z,4.47
2022-08-26T11:05:30.633Z,4.50
2022-08-26T11:10:42.262Z,4.20
2022-08-26T11:15:54.167Z,4.40
2022-08-26T11:20:57.260Z,4.13
2022-08-26T11:26:03.131Z,4.22
2022-08-26T11:31:11.844Z,3.85
2022-08-26T11:36:41.202Z,3.80
2022-08-26T11:41:46.403Z,3.60
2022-08-26T11:47:00.399Z,3.67
2022-08-26T11:52:20.963Z,3.40
2022-08-26T11:57:23.846Z,3.42
2022-08-26T12:02:28.153Z,3.40
2022-08-26T12:07:31.418Z,3.55
2022-08-26T12:12:39.698Z,3.40
2022-08-26T12:17:44.565Z,3.25
2022-08-26T12:22:48.119Z,2.80
2022-08-26T12:27:54.051Z,3.23
2022-08-26T12:33:21.922Z,3.10
2022-08-26T12:38:27.699Z,3.00
2022-08-26T12:43:46.725Z,3.35
2022-08-26T12:48:50.591Z,3.03
2022-08-26T12:53:54.481Z,3.07
2022-08-26T12:59:03.038Z,2.90
2022-08-26T13:04:07.381Z,2.70
2022-08-26T13:09:10.398Z,2.78
2022-08-26T13:14:23.860Z,3.00
2022-08-26T13:19:27.601Z,2.77
2022-08-26T13:24:37.037Z,2.67
2022-08-26T13:29:41.858Z,2.90
2022-08-26T13:34:51.253Z,2.75
2022-08-26T13:39:55.327Z,3.08
2022-08-26T13:44:58.389Z,2.77
2022-08-26T13:50:01.393Z,2.58
2022-08-26T13:55:05.148Z,2.63
2022-08-26T14:00:11.949Z,2.97
2022-08-26T14:05:15.037Z,3.25
2022-08-26T14:10:18.029Z,3.30
2022-08-26T14:15:20.920Z,2.72
2022-08-26T14:20:30.217Z,2.87
2022-08-26T14:25:33.981Z,3.05
2022-08-26T14:30:40.401Z,2.83
2022-08-26T14:35:47.356Z,3.03
2022-08-26T14:40:52.960Z,2.80
2022-08-26T14:45:56.359Z,2.90
2022-08-26T14:50:59.259Z,3.05
2022-08-26T14:56:02.578Z,2.92
2022-08-26T15:01:08.671Z,2.80
2022-08-26T15:06:18.410Z,3.10
2022-08-26T15:11:21.491Z,2.97
2022-08-26T15:16:24.821Z,3.03
2022-08-26T15:21:27.901Z,3.20
2022-08-26T15:26:31.890Z,3.17
2022-08-26T15:31:36.059Z,3.15
2022-08-26T15:36:39.770Z,3.20
2022-08-26T15:41:42.818Z,2.90
2022-08-26T15:46:45.922Z,2.97
2022-08-26T15:51:53.238Z,2.90
2022-08-26T15:56:56.059Z,3.30
2022-08-26T16:02:00.041Z,3.03
2022-08-26T16:07:03.922Z,2.88
2022-08-26T16:12:31.891Z,2.95
2022-08-26T16:17:34.929Z,2.90
2022-08-26T16:22:37.772Z,3.47
2022-08-26T16:27:40.580Z,3.40
2022-08-26T16:32:43.523Z,3.28
2022-08-26T16:37:47.710Z,2.88
2022-08-26T16:42:55.337Z,3.10
2022-08-26T16:47:59.719Z,3.38
2022-08-26T16:53:02.757Z,3.27
2022-08-26T16:58:05.940Z,3.42
2022-08-26T17:03:09.775Z,3.38
2022-08-26T17:08:24.251Z,3.40
2022-08-26T17:13:35.192Z,3.53
2022-08-26T17:18:41.657Z,3.37
2022-08-26T17:23:45.142Z,3.60
2022-08-26T17:28:48.225Z,3.70
2022-08-26T17:33:53.967Z,3.20
2022-08-26T17:38:58.710Z,3.38
2022-08-26T17:44:05.298Z,4.17
2022-08-26T17:49:08.744Z,4.60
2022-08-26T17:54:11.681Z,4.97
2022-08-26T17:59:14.463Z,5.00
2022-08-26T18:04:18.073Z,4.70
2022-08-26T18:09:21.116Z,4.73
2022-08-26T18:14:24.371Z,5.03
2022-08-26T18:19:28.062Z,4.45
2022-08-26T18:24:32.575Z,5.10
2022-08-26T18:29:35.491Z,6.63
2022-08-26T18:34:38.337Z,6.70
2022-08-26T18:39:42.840Z,6.60
2022-08-26T18:44:51.533Z,5.57
2022-08-26T18:49:55.143Z,5.43
2022-08-26T18:54:57.851Z,5.80
2022-08-26T19:00:00.859Z,4.90
2022-08-26T19:05:03.972Z,4.25
2022-08-26T19:10:07.597Z,3.50
2022-08-26T19:15:12.071Z,3.23
2022-08-26T19:20:15.171Z,3.67
2022-08-26T19:25:18.084Z,3.63
2022-08-26T19:30:21.203Z,3.40
2022-08-26T19:35:24.103Z,3.15
2022-08-26T19:40:28.633Z,3.13
2022-08-26T19:45:32.610Z,3.00
2022-08-26T19:50:35.883Z,3.03
2022-08-26T19:55:39.472Z,3.00
2022-08-26T20:00:43.289Z,3.10
2022-08-26T20:05:47.582Z,3.10
2022-08-26T20:10:52.854Z,3.08
2022-08-26T20:15:55.960Z,3.10
2022-08-26T20:21:17.639Z,3.33
2022-08-26T20:26:21.120Z,3.00
2022-08-26T20:31:25.367Z,3.03
2022-08-26T20:36:29.318Z,2.90
2022-08-26T20:41:33.214Z,2.90
2022-08-26T20:46:37.481Z,3.00
2022-08-26T20:51:42.674Z,3.15
2022-08-26T20:56:46.741Z,3.03
2022-08-26T21:01:50.235Z,2.60
2022-08-26T21:06:57.618Z,3.17
2022-08-26T21:12:00.749Z,3.38
2022-08-26T21:17:04.891Z,3.30
2022-08-26T21:22:07.776Z,3.40
2022-08-26T21:27:10.749Z,3.85
2022-08-26T21:32:15.756Z,4.23
2022-08-26T21:37:18.777Z,4.28
2022-08-26T21:42:22.341Z,4.20
2022-08-26T21:47:25.580Z,4.17
2022-08-26T21:52:28.861Z,4.85
2022-08-26T21:57:34.038Z,3.97
2022-08-26T22:02:38.349Z,3.92
2022-08-26T22:07:41.620Z,4.20
2022-08-26T22:12:44.628Z,4.13
2022-08-26T22:17:47.578Z,4.22
2022-08-26T22:22:50.398Z,4.40
2022-08-26T22:27:53.378Z,4.45
2022-08-26T22:32:56.256Z,4.15
2022-08-26T22:37:59.918Z,4.37
2022-08-26T22:43:04.923Z,3.97
2022-08-26T22:48:07.887Z,4.07
2022-08-26T22:53:11.150Z,3.90
2022-08-26T22:58:17.209Z,3.90
2022-08-26T23:03:20.312Z,4.00
2022-08-26T23:08:25.418Z,4.00
2022-08-26T23:13:28.474Z,4.10
2022-08-26T23:18:31.335Z,3.97
2022-08-26T23:23:34.285Z,3.67
2022-08-26T23:28:38.740Z,4.47
2022-08-26T23:34:00.795Z,4.32
2022-08-26T23:39:06.396Z,4.27
2022-08-26T23:44:09.357Z,3.85
2022-08-26T23:49:12.145Z,4.15
2022-08-26T23:54:15.410Z,4.37
2022-08-26T23:59:18.373Z,4.20
